Nearby METAR Reports

 

LIEE - Elmas, IT
Distance from station: NW 11km
Updated: 24/02/2024 23:20
Partly cloudy
Partly cloudy
 Wind from NNW
Wind: NNW 11 km/h
Temperature: 9°C
Wind Chill: 7°C
Dew Point: 8°C
Humidity: 94%
Barometer: 1010 hPa
Clouds: Partly cloudy
Visibility: 10 km
Cloud details: Few Clouds 914 m
Partly cloudy 1372 m
2024/02/24 22:20 LIEE 242220Z 33006KT 9999 FEW030 SCT045 09/08 Q1010
LIED - Decimomannu, IT
Distance from station: NW 23km
Updated: 24/02/2024 22:55
Light rain, Few clouds
Light rain, Few clouds
 Wind from NW
Wind: NW 4 km/h
Temperature: 9°C
Dew Point: 8°C
Humidity: 94%
Barometer: 1009 hPa
Summary: Light rain
Clouds: Few Clouds
Visibility: 10 km
Cloud details: Few Clouds 610 m
2024/02/24 21:55 LIED 242155Z 32002KT 9999 -RA FEW020 09/08 Q1009